Time;durP1;ratioP1;P1;durP2;ratioP2;P2;SDS_P1;SDS_P2;PMS_P1;PMS_P2;Temp;Humidity;BMP_temperature;BMP_pressure;BME280_temperature;BME280_humidity;BME280_pressure;Samples;Min_cycle;Max_cycle;Signal;HPM_P1;HPM_P2
2024/01/14 00:00:19;;;;;;;9.80;6.43;;;;;;;0.95;93.78;98376.06;5027860;28;20033;-77
2024/01/14 00:02:45;;;;;;;9.07;7.07;;;;;;;0.97;93.85;98373.25;5028415;28;20597;-77
2024/01/14 00:05:10;;;;;;;11.43;6.95;;;;;;;0.99;93.43;98358.09;5023188;28;20036;-78
2024/01/14 00:07:39;;;;;;;13.65;7.25;;;;;;;1.01;93.25;98377.91;5023105;28;20041;-78
2024/01/14 00:10:05;;;;;;;10.55;7.40;;;;;;;0.95;93.35;98368.19;5024268;28;20494;-77
2024/01/14 00:12:31;;;;;;;8.95;6.45;;;;;;;0.95;93.50;98383.94;5028492;28;20055;-78
2024/01/14 00:14:56;;;;;;;9.40;7.13;;;;;;;0.91;93.17;98385.38;5027872;28;20410;-78
2024/01/14 00:17:22;;;;;;;11.88;7.78;;;;;;;1.12;92.82;98371.25;5027018;28;20037;-77
2024/01/14 00:19:47;;;;;;;9.02;6.47;;;;;;;1.12;92.58;98369.44;5023264;28;20030;-78
2024/01/14 00:22:13;;;;;;;10.63;7.40;;;;;;;1.05;92.65;98365.97;5024449;28;20029;-78
2024/01/14 00:24:38;;;;;;;13.05;7.13;;;;;;;1.13;92.80;98357.94;5025235;28;20033;-78
2024/01/14 00:27:04;;;;;;;10.05;7.00;;;;;;;1.08;92.93;98360.34;5030073;28;20083;-78
2024/01/14 00:29:29;;;;;;;11.55;6.88;;;;;;;1.08;92.47;98362.97;5023698;28;20029;-77
2024/01/14 00:31:56;;;;;;;12.35;8.15;;;;;;;1.20;92.70;98356.09;5026698;28;20045;-78
2024/01/14 00:34:22;;;;;;;13.05;8.15;;;;;;;1.15;92.20;98357.72;5023140;28;20037;-78
2024/01/14 00:36:47;;;;;;;12.23;6.80;;;;;;;1.15;92.17;98349.81;5025371;28;20029;-77
2024/01/14 00:39:13;;;;;;;10.18;7.75;;;;;;;0.99;92.43;98350.19;5025578;28;20025;-78
2024/01/14 00:41:38;;;;;;;11.90;7.97;;;;;;;1.13;92.71;98344.78;5022301;28;21685;-78
2024/01/14 00:44:04;;;;;;;11.68;7.28;;;;;;;1.17;92.29;98342.56;5024537;28;20037;-77
2024/01/14 00:46:31;;;;;;;12.65;7.88;;;;;;;1.10;92.72;98350.44;5025493;28;20483;-76
2024/01/14 00:48:57;;;;;;;10.93;7.47;;;;;;;1.03;93.05;98340.91;5027759;28;20021;-77
2024/01/14 00:51:23;;;;;;;11.50;7.45;;;;;;;1.02;92.83;98342.75;5024720;28;20033;-76
2024/01/14 00:53:48;;;;;;;10.43;7.18;;;;;;;1.01;93.11;98333.22;5029807;28;20037;-77
2024/01/14 00:56:13;;;;;;;8.93;6.30;;;;;;;0.99;93.23;98327.38;5029668;28;20116;-77
2024/01/14 00:58:39;;;;;;;9.93;6.90;;;;;;;1.03;93.02;98325.94;5030607;28;20108;-77
2024/01/14 01:01:04;;;;;;;10.95;6.93;;;;;;;1.15;92.64;98329.63;5029709;28;20057;-76
2024/01/14 01:03:29;;;;;;;10.43;6.70;;;;;;;1.02;92.38;98324.34;5027182;28;20067;-77
2024/01/14 01:05:55;;;;;;;8.18;6.15;;;;;;;1.05;92.63;98323.16;5026357;28;20041;-76
2024/01/14 01:08:20;;;;;;;7.45;6.55;;;;;;;1.09;92.18;98330.41;5025418;28;20080;-76
2024/01/14 01:10:45;;;;;;;8.98;6.55;;;;;;;1.15;92.49;98332.25;5026635;28;20083;-77
2024/01/14 01:13:11;;;;;;;8.15;5.93;;;;;;;1.15;92.24;98324.38;5028099;28;20514;-76
2024/01/14 01:15:37;;;;;;;8.25;6.15;;;;;;;1.07;92.47;98313.25;5031120;28;20033;-76
2024/01/14 01:18:02;;;;;;;9.60;6.70;;;;;;;1.03;92.36;98322.50;5026701;28;20065;-77
2024/01/14 01:20:28;;;;;;;8.20;5.70;;;;;;;1.09;92.56;98317.25;5024213;28;20033;-77
2024/01/14 01:22:53;;;;;;;7.35;5.78;;;;;;;1.05;92.70;98310.00;5028471;28;20126;-78
2024/01/14 01:25:18;;;;;;;7.85;5.57;;;;;;;1.09;93.03;98316.47;5023917;28;20083;-77
2024/01/14 01:27:44;;;;;;;10.52;6.28;;;;;;;1.03;92.63;98319.88;5028479;28;20033;-76
2024/01/14 01:30:10;;;;;;;9.98;7.20;;;;;;;0.92;92.69;98302.91;5028304;28;20048;-79
2024/01/14 01:32:35;;;;;;;9.27;6.40;;;;;;;1.01;93.44;98300.88;5024620;28;20029;-78
2024/01/14 01:35:00;;;;;;;8.02;5.90;;;;;;;1.04;93.00;98303.94;5028335;28;20025;-79
2024/01/14 01:37:26;;;;;;;10.90;6.97;;;;;;;0.92;92.94;98302.13;5026610;28;20030;-77
2024/01/14 01:39:51;;;;;;;12.25;7.30;;;;;;;0.94;93.44;98295.63;5027337;28;20033;-76
2024/01/14 01:42:16;;;;;;;9.77;7.32;;;;;;;1.00;93.51;98292.22;5026652;28;20041;-76
2024/01/14 01:44:42;;;;;;;10.00;7.95;;;;;;;0.97;93.15;98289.16;5029468;28;20034;-78
2024/01/14 01:47:08;;;;;;;8.80;6.82;;;;;;;0.99;93.05;98293.22;5026905;28;20155;-77
2024/01/14 01:49:34;;;;;;;13.05;8.93;;;;;;;0.99;93.27;98289.78;5027825;28;20037;-77
2024/01/14 01:52:02;;;;;;;13.77;9.13;;;;;;;1.02;93.06;98300.72;5020008;28;20038;-77
2024/01/14 01:54:29;;;;;;;11.63;8.73;;;;;;;1.00;93.31;98289.59;5029527;28;20026;-77
2024/01/14 01:56:55;;;;;;;10.73;7.50;;;;;;;1.07;93.23;98300.09;5028581;28;20033;-78
2024/01/14 01:59:21;;;;;;;12.60;7.95;;;;;;;1.07;93.04;98293.00;5027502;28;20751;-78
2024/01/14 02:01:47;;;;;;;11.93;7.35;;;;;;;1.04;92.90;98284.72;5023440;28;20075;-76
2024/01/14 02:04:14;;;;;;;13.23;8.32;;;;;;;1.03;92.67;98272.59;5026786;28;20029;-76
2024/01/14 02:06:40;;;;;;;12.00;8.38;;;;;;;1.05;93.03;98267.97;5027956;28;20085;-78
2024/01/14 02:09:07;;;;;;;11.25;8.40;;;;;;;0.96;92.70;98277.84;5027966;28;20026;-78
2024/01/14 02:11:37;;;;;;;11.68;8.10;;;;;;;1.04;93.18;98269.78;5026230;28;20049;-77
2024/01/14 02:14:03;;;;;;;17.13;8.63;;;;;;;0.92;93.42;98268.75;5028281;28;20029;-76
2024/01/14 02:16:28;;;;;;;19.63;9.65;;;;;;;0.99;93.37;98266.94;5033979;28;20415;-77
2024/01/14 02:18:53;;;;;;;16.35;10.85;;;;;;;1.07;93.35;98258.84;5031360;28;20025;-77
2024/01/14 02:21:22;;;;;;;14.02;9.30;;;;;;;1.12;93.03;98245.09;5033292;28;20041;-78
2024/01/14 02:23:58;;;;;;;14.00;8.55;;;;;;;1.06;92.94;98230.97;5032094;28;20524;-77
2024/01/14 02:26:23;;;;;;;16.52;10.25;;;;;;;1.10;93.13;98231.38;5029970;28;20034;-77
2024/01/14 02:28:48;;;;;;;16.23;9.38;;;;;;;1.06;92.85;98238.84;5031757;28;20036;-78
2024/01/14 02:31:15;;;;;;;15.10;7.97;;;;;;;0.99;93.41;98240.66;5030837;28;20048;-77
2024/01/14 02:33:40;;;;;;;19.73;12.50;;;;;;;0.94;93.83;98226.53;5026378;28;20041;-77
2024/01/14 02:36:06;;;;;;;19.83;11.13;;;;;;;1.04;93.52;98230.38;5026404;28;20098;-77
2024/01/14 02:38:31;;;;;;;13.60;8.18;;;;;;;1.06;93.49;98228.34;5026062;28;20112;-77
2024/01/14 02:40:56;;;;;;;20.92;10.85;;;;;;;1.09;93.69;98225.28;5027628;28;20037;-78
2024/01/14 02:43:22;;;;;;;19.23;11.48;;;;;;;0.99;93.65;98224.09;5027788;28;20040;-77
2024/01/14 02:45:47;;;;;;;17.77;11.68;;;;;;;1.02;93.76;98219.25;5026412;28;20037;-77
2024/01/14 02:48:12;;;;;;;16.73;11.30;;;;;;;0.98;93.90;98212.81;5025643;28;20026;-77
2024/01/14 02:50:38;;;;;;;16.08;10.13;;;;;;;1.07;93.66;98222.06;5023522;28;20026;-78
2024/01/14 02:53:04;;;;;;;18.35;9.55;;;;;;;0.97;93.27;98207.72;5025681;28;20049;-77
2024/01/14 02:55:29;;;;;;;16.48;9.35;;;;;;;1.07;93.51;98218.66;5026326;28;20025;-78
2024/01/14 02:57:55;;;;;;;20.05;10.48;;;;;;;1.04;93.80;98211.97;5023752;28;20045;-78
2024/01/14 03:00:20;;;;;;;17.13;10.25;;;;;;;0.98;93.77;98204.09;5026122;28;20104;-77
2024/01/14 03:02:45;;;;;;;21.38;11.02;;;;;;;1.04;93.52;98219.03;5028514;28;20030;-77
2024/01/14 03:05:11;;;;;;;15.20;9.90;;;;;;;1.03;93.47;98209.53;5031627;28;20035;-77
2024/01/14 03:07:37;;;;;;;15.93;10.07;;;;;;;1.04;94.00;98203.28;5022110;28;20024;-77
2024/01/14 03:10:02;;;;;;;16.38;10.25;;;;;;;1.02;93.34;98215.81;5024200;28;20052;-77
2024/01/14 03:12:28;;;;;;;16.02;8.65;;;;;;;1.08;93.44;98204.47;5030397;28;20025;-78
2024/01/14 03:14:53;;;;;;;17.52;9.55;;;;;;;0.98;93.68;98207.53;5026955;28;20090;-78
2024/01/14 03:17:18;;;;;;;19.42;10.13;;;;;;;1.02;93.94;98185.09;5032228;28;20043;-78
2024/01/14 03:19:44;;;;;;;19.77;9.55;;;;;;;1.05;93.64;98197.03;5027543;28;20037;-78
2024/01/14 03:22:10;;;;;;;20.33;10.80;;;;;;;1.03;93.76;98202.47;5028334;28;20109;-78
2024/01/14 03:24:36;;;;;;;24.25;12.25;;;;;;;0.98;93.68;98189.16;5028834;28;20037;-78
2024/01/14 03:27:01;;;;;;;25.92;12.75;;;;;;;0.99;93.79;98197.81;5028906;28;20033;-77
2024/01/14 03:29:26;;;;;;;29.65;13.90;;;;;;;0.97;94.02;98184.91;5039358;28;20059;-78
2024/01/14 03:31:52;;;;;;;24.45;13.77;;;;;;;1.07;93.59;98182.66;5026036;28;20112;-77
2024/01/14 03:34:17;;;;;;;24.33;13.10;;;;;;;1.11;93.60;98183.88;5025314;28;20485;-77
2024/01/14 03:36:42;;;;;;;28.65;12.95;;;;;;;1.16;93.38;98181.44;5023824;28;20021;-77
2024/01/14 03:39:08;;;;;;;21.65;12.63;;;;;;;0.98;93.25;98175.19;5023478;28;20036;-77
2024/01/14 03:41:33;;;;;;;28.20;13.70;;;;;;;1.02;94.06;98160.66;5023258;28;20104;-77
2024/01/14 03:43:58;;;;;;;27.83;13.30;;;;;;;1.08;93.44;98178.22;5025338;28;20041;-78
2024/01/14 03:46:24;;;;;;;27.55;14.65;;;;;;;1.11;93.40;98162.88;5025085;28;20105;-77
2024/01/14 03:48:49;;;;;;;26.27;13.30;;;;;;;1.10;93.38;98161.22;5025142;28;20093;-77
2024/01/14 03:51:15;;;;;;;28.83;13.50;;;;;;;1.05;93.77;98161.03;5025058;28;20098;-77
2024/01/14 03:53:40;;;;;;;29.33;15.15;;;;;;;1.00;93.95;98163.47;5025198;28;20041;-77
2024/01/14 03:56:05;;;;;;;26.55;14.38;;;;;;;1.07;93.77;98163.47;5023072;28;20103;-77
2024/01/14 03:58:31;;;;;;;24.27;12.43;;;;;;;1.12;93.55;98161.03;5029111;28;20034;-78
2024/01/14 04:00:56;;;;;;;27.15;14.38;;;;;;;1.14;93.79;98165.06;5024840;28;20056;-77
2024/01/14 04:03:22;;;;;;;23.08;11.77;;;;;;;1.12;93.63;98164.47;5026914;28;20032;-77
2024/01/14 04:05:47;;;;;;;28.60;12.98;;;;;;;1.21;93.32;98172.94;5027975;28;20033;-77
2024/01/14 04:08:12;;;;;;;25.65;14.02;;;;;;;1.06;93.52;98162.66;5031514;28;20090;-77
2024/01/14 04:10:38;;;;;;;24.92;13.55;;;;;;;1.08;93.82;98158.00;5022799;28;20372;-77
2024/01/14 04:13:03;;;;;;;28.20;14.13;;;;;;;1.13;93.76;98157.41;5023041;28;20034;-76
2024/01/14 04:15:28;;;;;;;26.48;13.77;;;;;;;1.07;93.61;98152.97;5028904;28;20037;-76
2024/01/14 04:17:54;;;;;;;24.85;13.23;;;;;;;1.14;93.77;98149.28;5028700;28;20116;-77
2024/01/14 04:20:19;;;;;;;22.27;11.90;;;;;;;1.15;93.75;98142.22;5027030;28;20497;-77
2024/01/14 04:22:44;;;;;;;24.65;12.38;;;;;;;1.14;93.58;98149.28;5025023;28;20124;-77
2024/01/14 04:25:10;;;;;;;21.15;11.55;;;;;;;1.16;93.40;98144.63;5030149;28;20087;-79
2024/01/14 04:27:37;;;;;;;23.13;12.57;;;;;;;1.06;93.73;98146.91;5023298;28;20030;-77
2024/01/14 04:30:03;;;;;;;21.73;10.80;;;;;;;1.07;93.87;98137.19;5023862;28;20029;-78
2024/01/14 04:32:29;;;;;;;27.77;13.30;;;;;;;1.09;93.77;98135.97;5021539;28;20086;-77
2024/01/14 04:34:54;;;;;;;22.88;11.40;;;;;;;1.02;94.06;98144.88;5024921;28;20021;-76
2024/01/14 04:37:19;;;;;;;20.10;12.50;;;;;;;1.05;94.58;98129.50;5024211;28;20187;-77
2024/01/14 04:39:45;;;;;;;22.77;11.02;;;;;;;1.08;93.83;98123.84;5023969;28;20521;-78
2024/01/14 04:42:10;;;;;;;30.75;13.18;;;;;;;1.01;94.06;98123.03;5028055;28;20516;-77
2024/01/14 04:44:35;;;;;;;24.48;8.50;;;;;;;1.06;94.33;98127.69;5022518;28;20493;-77
2024/01/14 04:47:01;;;;;;;21.65;11.95;;;;;;;1.00;94.26;98110.13;5024267;28;20563;-79
2024/01/14 04:49:26;;;;;;;18.13;10.45;;;;;;;1.07;93.94;98119.59;5022232;28;20108;-78
2024/01/14 04:51:51;;;;;;;22.75;12.32;;;;;;;1.05;94.35;98121.63;5022025;28;20059;-78
2024/01/14 04:54:17;;;;;;;24.80;12.48;;;;;;;0.96;94.29;98109.72;5023043;28;20160;-76
2024/01/14 04:56:42;;;;;;;23.73;11.57;;;;;;;1.06;94.07;98120.63;5022638;28;20128;-76
2024/01/14 04:59:08;;;;;;;22.38;10.35;;;;;;;0.95;94.05;98096.78;5020434;28;20025;-78
2024/01/14 05:01:33;;;;;;;17.65;10.82;;;;;;;1.08;94.42;98110.72;5020895;28;20037;-76
2024/01/14 05:03:59;;;;;;;27.17;13.25;;;;;;;1.06;94.27;98119.81;5027794;28;20038;-79
2024/01/14 05:06:24;;;;;;;21.42;11.80;;;;;;;1.04;94.37;98116.59;5027269;28;20471;-78
2024/01/14 05:08:50;;;;;;;17.10;10.90;;;;;;;1.07;93.59;98121.44;5021568;28;20331;-78
2024/01/14 05:11:15;;;;;;;22.63;10.80;;;;;;;1.01;94.02;98111.72;5021168;28;20037;-77
2024/01/14 05:13:41;;;;;;;17.20;10.40;;;;;;;1.07;94.02;98113.56;5026245;28;20047;-78
2024/01/14 05:16:06;;;;;;;24.42;9.32;;;;;;;1.15;93.83;98108.06;5023262;28;20026;-77
2024/01/14 05:18:31;;;;;;;15.45;8.90;;;;;;;1.08;93.98;98107.28;5021551;28;20119;-78
2024/01/14 05:20:57;;;;;;;20.23;10.23;;;;;;;1.09;93.83;98120.19;5020694;28;20034;-77
2024/01/14 05:23:22;;;;;;;18.17;8.35;;;;;;;1.13;93.50;98110.09;5023079;28;20041;-78
2024/01/14 05:25:47;;;;;;;20.83;10.40;;;;;;;1.16;94.08;98117.53;5022757;28;20071;-78
2024/01/14 05:28:13;;;;;;;24.17;11.70;;;;;;;1.16;93.97;98109.66;5025068;28;20096;-78
2024/01/14 05:30:38;;;;;;;18.73;7.88;;;;;;;1.11;93.51;98101.63;5022889;28;20405;-78
2024/01/14 05:33:03;;;;;;;16.65;10.45;;;;;;;1.06;94.23;98104.03;5023848;28;20394;-79
2024/01/14 05:35:30;;;;;;;18.83;7.00;;;;;;;1.09;94.09;98101.00;5028543;28;20681;-77
2024/01/14 05:37:56;;;;;;;22.90;10.60;;;;;;;1.16;93.64;98101.78;5025948;28;20032;-78
2024/01/14 05:40:22;;;;;;;20.88;9.80;;;;;;;1.09;93.85;98078.16;5029499;28;20036;-79
2024/01/14 05:42:47;;;;;;;22.60;8.52;;;;;;;1.14;93.51;98099.38;5025055;28;20038;-79
2024/01/14 05:45:12;;;;;;;15.85;7.28;;;;;;;1.10;93.82;98092.09;5026234;28;20036;-80
2024/01/14 05:47:38;;;;;;;15.93;9.13;;;;;;;1.06;94.02;98101.41;5030364;28;20060;-79
2024/01/14 05:50:05;;;;;;;23.23;11.13;;;;;;;1.06;94.06;98093.53;5033258;28;20371;-79
2024/01/14 05:52:30;;;;;;;23.33;11.07;;;;;;;1.10;93.90;98100.78;5031747;28;20093;-79
2024/01/14 05:54:56;;;;;;;20.13;10.35;;;;;;;1.17;93.96;98098.97;5032246;28;20042;-80
2024/01/14 05:57:22;;;;;;;23.35;11.20;;;;;;;1.10;93.96;98095.53;5034854;28;20041;-79
2024/01/14 05:59:47;;;;;;;18.05;10.55;;;;;;;1.13;93.40;98089.88;5033825;28;20475;-78
2024/01/14 06:02:12;;;;;;;21.90;11.90;;;;;;;1.05;94.41;98092.72;5028553;28;20026;-79
2024/01/14 06:04:38;;;;;;;21.95;10.40;;;;;;;1.11;94.13;98102.44;5025449;28;20486;-79
2024/01/14 06:07:03;;;;;;;23.70;11.20;;;;;;;1.06;94.44;98083.84;5028788;28;20029;-79
2024/01/14 06:09:29;;;;;;;25.20;12.13;;;;;;;1.10;94.03;98090.28;5030905;28;20100;-79
2024/01/14 06:11:54;;;;;;;25.75;10.30;;;;;;;1.11;93.97;98089.28;5024290;28;20033;-77
2024/01/14 06:14:19;;;;;;;24.23;12.00;;;;;;;1.06;94.27;98089.09;5028120;28;20057;-77
2024/01/14 06:16:45;;;;;;;26.20;12.15;;;;;;;1.04;94.78;98082.44;5028413;28;20060;-77
2024/01/14 06:19:10;;;;;;;23.08;12.77;;;;;;;1.16;94.26;98086.00;5026021;28;20040;-77
2024/01/14 06:21:42;;;;;;;20.27;9.50;;;;;;;1.05;94.37;98092.72;5026658;28;20045;-77
2024/01/14 06:24:09;;;;;;;21.40;11.25;;;;;;;1.11;93.91;98091.09;5028212;23;20406;-84
2024/01/14 06:26:34;;;;;;;20.50;12.07;;;;;;;1.03;93.89;98097.38;4969750;28;20053;-85
2024/01/14 06:29:00;;;;;;;23.73;13.30;;;;;;;1.11;94.37;98097.16;4986432;28;20593;-85
2024/01/14 06:31:25;;;;;;;19.27;9.80;;;;;;;1.19;94.10;98106.63;4956554;28;20035;-85
2024/01/14 06:33:51;;;;;;;23.90;11.70;;;;;;;1.09;93.92;98096.53;4970002;28;20398;-84
2024/01/14 06:36:19;;;;;;;27.27;12.70;;;;;;;1.05;93.99;98091.94;4984942;28;20458;-84
2024/01/14 06:38:45;;;;;;;22.63;10.50;;;;;;;1.19;93.44;98088.25;4984019;28;20442;-84
2024/01/14 06:41:24;;;;;;;19.05;8.75;;;;;;;1.08;93.67;98092.31;4971485;28;20022;-85
2024/01/14 06:43:50;;;;;;;26.63;12.95;;;;;;;1.06;93.73;98085.66;4948333;28;20114;-84
2024/01/14 06:46:16;;;;;;;29.23;15.35;;;;;;;1.18;93.26;98102.41;4952576;28;20114;-85
2024/01/14 06:48:41;;;;;;;23.80;13.35;;;;;;;1.17;93.24;98088.44;4950764;28;20047;-84
2024/01/14 06:51:07;;;;;;;29.48;14.98;;;;;;;1.10;93.18;98098.16;4951356;28;20031;-84
2024/01/14 06:53:32;;;;;;;30.38;14.90;;;;;;;0.98;93.29;98078.81;4936565;29;20027;-84
2024/01/14 06:55:58;;;;;;;27.58;12.95;;;;;;;1.28;93.70;98108.03;4954286;28;21677;-85
2024/01/14 06:58:23;;;;;;;26.00;13.23;;;;;;;1.27;93.13;98104.59;4945874;28;20036;-84
2024/01/14 07:00:49;;;;;;;27.02;14.05;;;;;;;1.05;93.11;98087.47;4936814;29;20031;-84
2024/01/14 07:03:14;;;;;;;23.10;14.50;;;;;;;1.15;93.39;98098.38;4932263;28;20035;-84
2024/01/14 07:05:39;;;;;;;25.02;13.68;;;;;;;1.16;93.36;98099.16;4947148;28;20058;-85
2024/01/14 07:08:05;;;;;;;23.77;13.00;;;;;;;1.12;93.13;98088.25;4951076;28;20039;-85
2024/01/14 07:10:31;;;;;;;29.17;12.63;;;;;;;1.15;93.43;98098.38;4934244;29;20127;-85
2024/01/14 07:12:56;;;;;;;30.52;13.15;;;;;;;1.05;94.25;98095.34;4953247;28;20041;-85
2024/01/14 07:15:22;;;;;;;27.27;13.60;;;;;;;1.10;93.43;98081.59;4949976;28;21917;-85
2024/01/14 07:17:49;;;;;;;26.15;13.20;;;;;;;1.06;93.69;98078.59;4920206;29;20030;-87
2024/01/14 07:20:14;;;;;;;25.30;13.02;;;;;;;1.12;93.36;98090.88;4933028;29;20080;-85
2024/01/14 07:22:40;;;;;;;21.10;10.18;;;;;;;1.13;93.46;98091.69;4953510;28;20047;-87
2024/01/14 07:25:05;;;;;;;23.65;13.27;;;;;;;1.08;93.65;98076.56;4953659;29;20036;-86
2024/01/14 07:27:31;;;;;;;23.58;12.57;;;;;;;1.11;93.63;98076.16;4956595;28;20532;-85
2024/01/14 07:29:56;;;;;;;25.27;13.43;;;;;;;1.13;93.85;98089.88;4935455;29;20380;-86
2024/01/14 07:32:21;;;;;;;23.05;12.05;;;;;;;1.20;93.51;98088.03;4935145;29;20031;-86
2024/01/14 07:34:47;;;;;;;23.05;13.02;;;;;;;1.13;93.61;98075.94;4953836;28;20043;-86
2024/01/14 07:37:12;;;;;;;26.17;12.60;;;;;;;1.21;93.68;98087.03;4937452;29;20057;-86
2024/01/14 07:39:38;;;;;;;29.60;13.80;;;;;;;1.03;94.32;98091.31;4948156;28;20043;-85
2024/01/14 07:42:04;;;;;;;28.35;12.95;;;;;;;1.18;93.89;98076.13;4949334;28;20119;-85
2024/01/14 07:44:30;;;;;;;24.70;12.00;;;;;;;1.08;93.73;98073.13;4948522;28;20041;-84
2024/01/14 07:46:55;;;;;;;30.63;12.73;;;;;;;1.11;94.40;98081.41;4927422;29;20039;-85
2024/01/14 07:49:21;;;;;;;29.48;13.32;;;;;;;1.26;93.78;98079.31;4955586;28;20125;-85
2024/01/14 07:51:46;;;;;;;26.05;12.38;;;;;;;1.17;93.83;98069.25;4951997;28;20031;-86
2024/01/14 07:54:12;;;;;;;29.00;12.98;;;;;;;1.23;93.39;98068.41;4946888;28;20035;-85
2024/01/14 07:56:37;;;;;;;23.27;11.60;;;;;;;1.25;93.40;98082.97;4933145;29;20027;-87
2024/01/14 07:59:03;;;;;;;21.50;11.60;;;;;;;1.28;93.36;98071.22;4946263;28;20034;-86
2024/01/14 08:01:30;;;;;;;25.30;12.60;;;;;;;1.17;93.57;98058.72;4947583;28;21515;-85
2024/01/14 08:03:55;;;;;;;23.38;12.63;;;;;;;1.14;94.03;98059.13;4932175;29;20038;-85
2024/01/14 08:06:24;;;;;;;22.73;11.73;;;;;;;1.22;93.32;98064.97;4947346;29;20039;-84
2024/01/14 08:08:49;;;;;;;24.90;12.23;;;;;;;1.22;93.93;98080.72;4929105;28;20038;-85
2024/01/14 08:11:15;;;;;;;25.30;13.07;;;;;;;1.21;93.81;98076.50;4928452;28;21949;-84
2024/01/14 08:13:40;;;;;;;24.75;11.50;;;;;;;1.20;93.54;98055.69;4945583;28;20035;-85
2024/01/14 08:16:06;;;;;;;18.67;10.02;;;;;;;1.33;93.28;98072.19;4927925;29;20034;-85
2024/01/14 08:18:32;;;;;;;29.42;13.95;;;;;;;1.26;93.37;98078.50;4949224;28;20043;-85
2024/01/14 08:20:57;;;;;;;19.33;10.65;;;;;;;1.26;93.66;98089.84;4927530;29;20058;-86
2024/01/14 08:23:22;;;;;;;20.50;11.48;;;;;;;1.27;93.67;98082.75;4947731;28;20372;-85
2024/01/14 08:25:48;;;;;;;18.17;10.77;;;;;;;1.20;93.51;98064.38;4949399;29;20138;-85
2024/01/14 08:28:14;;;;;;;18.00;11.50;;;;;;;1.19;93.89;98075.09;4936190;29;20039;-85
2024/01/14 08:30:39;;;;;;;26.27;12.38;;;;;;;1.13;93.55;98060.16;4933407;29;20134;-85
2024/01/14 08:33:04;;;;;;;22.50;12.60;;;;;;;1.24;93.76;98070.84;4932008;28;20032;-85
2024/01/14 08:35:30;;;;;;;23.95;12.30;;;;;;;1.28;93.75;98064.16;4950711;28;20039;-85
2024/01/14 08:37:55;;;;;;;21.98;11.77;;;;;;;1.25;94.10;98072.44;4935225;28;20031;-85
2024/01/14 08:40:20;;;;;;;18.95;10.23;;;;;;;1.26;93.14;98073.25;4949220;28;20756;-85
2024/01/14 08:42:47;;;;;;;20.70;11.68;;;;;;;1.29;93.99;98071.00;4950480;29;20031;-85
2024/01/14 08:45:13;;;;;;;20.58;11.18;;;;;;;1.33;93.47;98074.81;4950798;28;20031;-85
2024/01/14 08:47:40;;;;;;;18.98;9.65;;;;;;;1.17;93.50;98045.59;4949936;28;20546;-85
2024/01/14 08:50:09;;;;;;;21.83;10.75;;;;;;;1.35;93.43;98072.81;4951324;28;20039;-85
2024/01/14 08:52:36;;;;;;;20.08;10.18;;;;;;;1.38;93.10;98069.75;4951158;28;20377;-85
2024/01/14 08:55:02;;;;;;;21.42;10.82;;;;;;;1.32;93.65;98067.16;4951159;28;20034;-85
2024/01/14 08:57:27;;;;;;;15.88;10.02;;;;;;;1.10;93.88;98037.75;4943650;28;20023;-85
2024/01/14 08:59:53;;;;;;;16.23;8.23;;;;;;;1.03;94.09;98015.94;4948260;28;20086;-86
2024/01/14 09:02:18;;;;;;;19.25;10.15;;;;;;;1.04;93.64;98011.50;4950392;28;20498;-85
2024/01/14 09:04:44;;;;;;;19.02;10.52;;;;;;;1.32;93.33;98051.38;4931496;28;20062;-85
2024/01/14 09:07:11;;;;;;;20.73;9.02;;;;;;;1.36;93.22;98049.94;4963145;28;20435;-85
2024/01/14 09:09:37;;;;;;;17.00;10.25;;;;;;;1.40;93.12;98065.09;4964599;28;20035;-85
2024/01/14 09:12:02;;;;;;;22.58;10.88;;;;;;;1.39;93.37;98063.50;4947147;28;20151;-86
2024/01/14 09:14:28;;;;;;;20.38;10.15;;;;;;;1.41;93.40;98053.59;4947632;28;20601;-85
2024/01/14 09:16:53;;;;;;;15.80;8.75;;;;;;;1.46;92.66;98059.00;4963510;28;20031;-85
2024/01/14 09:19:19;;;;;;;12.23;8.50;;;;;;;1.43;93.04;98059.44;4952455;29;20509;-85
2024/01/14 09:21:44;;;;;;;19.20;9.23;;;;;;;1.36;93.53;98073.63;4967927;28;20032;-85
2024/01/14 09:24:09;;;;;;;16.13;8.75;;;;;;;1.28;93.80;98066.78;4954496;28;20035;-86
2024/01/14 09:26:35;;;;;;;18.92;11.05;;;;;;;1.42;93.61;98062.28;4969596;28;20035;-85
2024/01/14 09:29:00;;;;;;;22.52;11.93;;;;;;;1.38;93.51;98059.25;4950569;28;20122;-87
2024/01/14 09:31:27;;;;;;;19.63;10.70;;;;;;;1.45;93.35;98075.00;4941026;29;20066;-86
2024/01/14 09:33:52;;;;;;;18.48;11.90;;;;;;;1.46;93.33;98066.88;4951091;28;20031;-86
2024/01/14 09:36:19;;;;;;;17.02;10.85;;;;;;;1.48;93.46;98067.50;4937332;28;20114;-85
2024/01/14 09:38:45;;;;;;;19.42;9.35;;;;;;;1.32;92.77;98043.50;4953529;28;20035;-85
2024/01/14 09:41:31;;;;;;;14.18;8.40;;;;;;;1.43;93.38;98066.50;4952358;28;20445;-85
2024/01/14 09:43:57;;;;;;;14.20;8.98;;;;;;;1.40;93.39;98066.91;4955197;28;20090;-86
2024/01/14 09:46:23;;;;;;;16.52;9.50;;;;;;;1.39;93.67;98053.00;4948567;28;20031;-87
2024/01/14 09:48:51;;;;;;;14.52;8.77;;;;;;;1.46;93.53;98066.09;4948415;28;20039;-85
2024/01/14 09:51:18;;;;;;;15.32;9.48;;;;;;;1.36;93.50;98044.69;4949825;28;20042;-86
2024/01/14 09:53:45;;;;;;;15.23;8.88;;;;;;;1.45;93.52;98057.41;4969177;28;20661;-85
2024/01/14 09:56:13;;;;;;;15.23;9.27;;;;;;;1.51;93.69;98066.25;4957420;29;20062;-86
2024/01/14 09:58:40;;;;;;;12.98;9.02;;;;;;;1.55;93.23;98064.03;4957252;28;20034;-86
2024/01/14 10:01:08;;;;;;;12.05;7.30;;;;;;;1.52;93.22;98063.44;4937990;29;20039;-87
2024/01/14 10:03:34;;;;;;;11.82;8.43;;;;;;;1.43;93.56;98063.88;4948579;28;20514;-86
2024/01/14 10:06:01;;;;;;;13.60;8.93;;;;;;;1.41;93.24;98043.06;4953651;28;20062;-86
2024/01/14 10:08:26;;;;;;;14.85;9.07;;;;;;;1.39;93.60;98050.34;4954321;28;20026;-86
2024/01/14 10:10:52;;;;;;;17.20;9.43;;;;;;;1.38;93.37;98038.22;4947694;28;20552;-84
2024/01/14 10:13:20;;;;;;;17.60;9.15;;;;;;;1.37;93.71;98036.63;4953897;28;20097;-84
2024/01/14 10:15:50;;;;;;;15.65;9.77;;;;;;;1.47;93.70;98044.03;4954078;28;20031;-86
2024/01/14 10:18:16;;;;;;;13.55;9.30;;;;;;;1.42;93.27;98042.03;4968457;28;20376;-85
2024/01/14 10:20:41;;;;;;;13.32;9.85;;;;;;;1.63;93.12;98045.38;4952919;28;20542;-85
2024/01/14 10:23:07;;;;;;;13.45;9.38;;;;;;;1.59;93.51;98038.94;4950446;28;20038;-84
2024/01/14 10:25:32;;;;;;;13.85;9.13;;;;;;;1.53;93.06;98030.03;4954350;28;20110;-85
2024/01/14 10:28:03;;;;;;;12.52;8.52;;;;;;;1.46;93.22;98010.88;4951125;28;20039;-85
2024/01/14 10:30:28;;;;;;;16.42;7.93;;;;;;;1.49;93.15;98020.97;4953270;28;20118;-84
2024/01/14 10:32:54;;;;;;;14.20;8.90;;;;;;;1.62;92.62;98030.63;4936847;28;20126;-85
2024/01/14 10:35:19;;;;;;;12.18;8.95;;;;;;;1.38;93.36;98005.84;4952392;28;20035;-86
2024/01/14 10:37:45;;;;;;;13.27;7.90;;;;;;;1.43;92.90;98001.59;4954768;28;20051;-86
2024/01/14 10:40:12;;;;;;;14.15;9.27;;;;;;;1.60;92.98;98020.28;4970261;28;20093;-86
2024/01/14 10:42:37;;;;;;;14.15;9.52;;;;;;;1.50;92.57;97996.31;4953641;28;20674;-85
2024/01/14 10:45:06;;;;;;;12.77;8.90;;;;;;;1.62;92.55;98010.38;4954108;28;20377;-87
2024/01/14 10:47:33;;;;;;;12.63;8.57;;;;;;;1.63;92.59;97995.41;4938002;29;20027;-86
2024/01/14 10:50:03;;;;;;;16.75;9.98;;;;;;;1.50;92.03;97993.66;4953298;28;20027;-86
2024/01/14 10:52:36;;;;;;;14.73;9.90;;;;;;;1.60;92.88;98001.06;4954174;28;20023;-85
2024/01/14 10:55:42;;;;;;;13.43;9.32;;;;;;;1.63;92.88;97987.50;4963752;28;20034;-85
2024/01/14 10:58:24;;;;;;;11.60;8.20;;;;;;;1.43;92.96;97956.91;4950368;28;20047;-86
2024/01/14 11:00:53;;;;;;;11.82;8.43;;;;;;;1.65;92.67;97988.09;4955089;28;20035;-85
2024/01/14 11:03:18;;;;;;;10.55;8.68;;;;;;;1.65;92.40;97970.50;4948148;28;20035;-86
2024/01/14 11:05:44;;;;;;;13.30;8.20;;;;;;;1.65;92.06;97957.34;4956213;28;20098;-86
2024/01/14 11:08:11;;;;;;;10.45;7.18;;;;;;;1.76;92.42;97969.00;4940159;29;20031;-86
2024/01/14 11:10:39;;;;;;;10.40;6.53;;;;;;;1.73;92.22;97972.06;4952724;28;20446;-85
2024/01/14 11:13:13;;;;;;;13.93;8.13;;;;;;;1.71;92.60;97971.47;4956821;28;20156;-85
2024/01/14 11:15:59;;;;;;;11.15;7.07;;;;;;;1.64;92.54;97957.59;4956590;28;20100;-84
2024/01/14 11:18:31;;;;;;;15.57;6.97;;;;;;;1.60;92.46;97948.47;4935262;28;20035;-84
2024/01/14 11:21:29;;;;;;;15.63;7.95;;;;;;;1.75;92.93;97952.41;4968790;28;20090;-85
2024/01/14 11:23:56;;;;;;;12.40;7.70;;;;;;;1.82;92.26;97941.84;4946432;29;20039;-83